Time;durP1;ratioP1;P1;durP2;ratioP2;P2;SDS_P1;SDS_P2;PMS_P1;PMS_P2;Temp;Humidity;BMP_temperature;BMP_pressure;BME280_temperature;BME280_humidity;BME280_pressure;Samples;Min_cycle;Max_cycle;Signal;HPM_P1;HPM_P2
2023/03/10 00:00:11;;;;;;;12.80;4.40;;;;;;;-2.02;59.76;98360.23;109760;1251;68143;-75
2023/03/10 00:03:18;;;;;;;11.50;3.90;;;;;;;-2.03;60.16;98359.98;109561;1251;75392;-74
2023/03/10 00:06:05;;;;;;;12.30;4.30;;;;;;;-2.05;60.03;98356.23;109639;1251;57731;-75
2023/03/10 00:08:53;;;;;;;10.70;4.10;;;;;;;-2.04;60.38;98356.89;109573;1251;61415;-74
2023/03/10 00:11:39;;;;;;;11.90;4.10;;;;;;;-2.03;60.62;98350.91;109644;1254;70986;-74
2023/03/10 00:14:26;;;;;;;12.90;4.20;;;;;;;-2.03;60.72;98346.23;109743;1251;66351;-74
2023/03/10 00:17:13;;;;;;;12.70;4.30;;;;;;;-2.02;60.59;98343.06;109006;1251;1002150;-75
2023/03/10 00:19:59;;;;;;;15.70;4.70;;;;;;;-2.01;60.91;98345.27;109720;1251;58732;-74
2023/03/10 00:22:46;;;;;;;14.40;4.70;;;;;;;-2.02;60.84;98347.23;109670;1251;61611;-74
2023/03/10 00:25:33;;;;;;;10.10;3.60;;;;;;;-2.03;61.25;98346.23;109681;1250;73270;-74
2023/03/10 00:28:19;;;;;;;12.00;4.60;;;;;;;-2.04;61.47;98342.65;108997;1251;1002362;-74
2023/03/10 00:31:19;;;;;;;11.10;3.90;;;;;;;-2.05;61.62;98335.73;109757;1250;70503;-76
2023/03/10 00:34:05;;;;;;;12.10;4.70;;;;;;;-2.06;61.75;98326.36;109539;1252;56782;-75
2023/03/10 00:36:52;;;;;;;12.60;4.10;;;;;;;-2.05;61.72;98325.27;109576;1251;60225;-73
2023/03/10 00:39:39;;;;;;;12.90;4.30;;;;;;;-2.04;61.84;98326.65;109691;1251;70844;-74
2023/03/10 00:42:25;;;;;;;14.40;4.50;;;;;;;-2.04;61.79;98322.81;109016;1251;1002337;-74
2023/03/10 00:45:12;;;;;;;10.40;3.40;;;;;;;-2.06;62.67;98319.44;109778;1251;72746;-75
2023/03/10 00:47:59;;;;;;;13.70;4.60;;;;;;;-2.09;62.54;98301.49;109648;1253;57030;-74
2023/03/10 00:50:46;;;;;;;11.00;4.20;;;;;;;-2.09;63.28;98303.75;109790;1251;61361;-74
2023/03/10 00:53:36;;;;;;;13.10;4.00;;;;;;;-2.10;63.42;98300.71;109665;1251;70669;-79
2023/03/10 00:56:25;;;;;;;12.70;4.40;;;;;;;-2.12;63.62;98289.67;109614;1251;66126;-74
2023/03/10 00:59:12;;;;;;;12.00;3.70;;;;;;;-2.12;63.43;98287.77;109661;1251;71952;-74
2023/03/10 01:01:59;;;;;;;13.10;4.10;;;;;;;-2.12;63.86;98281.15;109652;1251;58914;-74
2023/03/10 01:04:48;;;;;;;10.10;4.00;;;;;;;-2.12;64.05;98283.98;109821;1251;60235;-73
2023/03/10 01:07:35;;;;;;;11.10;4.20;;;;;;;-2.12;64.05;98281.72;109076;1250;1002024;-75
2023/03/10 01:10:21;;;;;;;10.90;4.10;;;;;;;-2.14;64.53;98271.70;109562;1254;66262;-74
2023/03/10 01:13:11;;;;;;;9.30;3.60;;;;;;;-2.13;64.70;98264.73;109671;1251;72697;-74
2023/03/10 01:15:58;;;;;;;12.20;4.60;;;;;;;-2.14;65.05;98260.45;109587;1250;56945;-73
2023/03/10 01:18:44;;;;;;;16.70;4.40;;;;;;;-2.17;65.47;98257.96;109642;1251;58790;-74
2023/03/10 01:21:40;;;;;;;11.90;3.80;;;;;;;-2.17;65.49;98254.19;108954;1251;1002824;-73
2023/03/10 01:24:27;;;;;;;12.20;4.00;;;;;;;-2.18;65.98;98248.30;109220;1257;66309;-74
2023/03/10 01:27:14;;;;;;;10.10;3.80;;;;;;;-2.17;66.77;98248.29;109181;1257;72822;-73
2023/03/10 01:30:00;;;;;;;10.70;4.00;;;;;;;-2.18;67.05;98248.13;108325;1256;1002455;-72
2023/03/10 01:32:47;;;;;;;11.90;3.90;;;;;;;-2.15;67.43;98245.89;109287;1255;60301;-76
2023/03/10 01:35:34;;;;;;;12.00;3.80;;;;;;;-2.14;68.67;98247.04;109206;1256;72102;-76
2023/03/10 01:38:21;;;;;;;10.10;3.90;;;;;;;-2.14;69.09;98243.41;109299;1256;68812;-75
2023/03/10 01:41:08;;;;;;;10.30;3.00;;;;;;;-2.17;70.29;98239.37;109299;1256;73825;-74
2023/03/10 01:43:56;;;;;;;10.40;3.90;;;;;;;-2.18;70.44;98233.23;108502;1256;1002213;-73
2023/03/10 01:46:53;;;;;;;9.80;4.20;;;;;;;-2.19;70.86;98231.51;109274;1256;60265;-73
2023/03/10 01:49:46;;;;;;;10.00;3.40;;;;;;;-2.23;71.96;98223.76;109249;1257;72005;-75
2023/03/10 01:52:34;;;;;;;9.80;3.20;;;;;;;-2.29;72.87;98217.46;108550;1256;1002493;-75
2023/03/10 01:55:31;;;;;;;11.40;3.80;;;;;;;-2.33;73.21;98213.49;109311;1251;71693;-74
2023/03/10 01:58:21;;;;;;;9.50;4.00;;;;;;;-2.37;73.97;98216.34;109551;1251;58206;-74
2023/03/10 02:01:10;;;;;;;10.50;3.60;;;;;;;-2.39;74.13;98212.63;109797;1251;59003;-73
2023/03/10 02:04:07;;;;;;;10.20;3.60;;;;;;;-2.39;74.91;98211.42;109812;1251;72074;-74
2023/03/10 02:06:55;;;;;;;7.60;3.00;;;;;;;-2.41;75.15;98204.38;109560;1251;68944;-73
2023/03/10 02:09:48;;;;;;;10.00;3.60;;;;;;;-2.39;74.96;98198.37;109013;1251;1002388;-74
2023/03/10 02:12:35;;;;;;;9.50;3.90;;;;;;;-2.40;75.55;98196.86;109317;1257;57011;-74
2023/03/10 02:15:22;;;;;;;9.20;3.70;;;;;;;-2.41;75.84;98192.55;109812;1251;60139;-73
2023/03/10 02:18:13;;;;;;;10.10;3.70;;;;;;;-2.41;75.74;98187.35;109698;1251;71823;-73
2023/03/10 02:21:24;;;;;;;10.30;3.00;;;;;;;-2.42;76.32;98183.20;109694;1251;68808;-75
2023/03/10 02:24:46;;;;;;;10.70;3.90;;;;;;;-2.42;77.82;98180.64;109754;1251;73718;-73
2023/03/10 02:27:37;;;;;;;9.80;3.90;;;;;;;-2.46;79.18;98177.55;109758;1251;58484;-73
2023/03/10 02:30:35;;;;;;;10.30;3.70;;;;;;;-2.48;79.69;98168.84;109574;1251;61367;-73
2023/03/10 02:33:27;;;;;;;9.20;3.60;;;;;;;-2.56;81.55;98170.11;109487;1251;72244;-74
2023/03/10 02:36:21;;;;;;;10.30;3.80;;;;;;;-2.64;83.09;98168.98;109681;1251;67711;-74
2023/03/10 02:39:07;;;;;;;8.80;3.20;;;;;;;-2.69;83.52;98168.71;109649;1251;72704;-75
2023/03/10 02:41:54;;;;;;;11.70;4.00;;;;;;;-2.72;83.93;98165.92;109757;1251;57017;-74
2023/03/10 02:44:43;;;;;;;12.20;5.00;;;;;;;-2.71;83.61;98162.95;109362;1254;60271;-73
2023/03/10 02:47:30;;;;;;;9.90;3.70;;;;;;;-2.70;84.34;98160.82;109237;1254;70989;-72
2023/03/10 02:50:20;;;;;;;10.30;4.10;;;;;;;-2.71;85.59;98158.27;108983;1259;66434;-72
2023/03/10 02:53:21;;;;;;;10.40;4.60;;;;;;;-2.76;86.91;98153.27;108179;1258;1002197;-73
2023/03/10 02:56:08;;;;;;;11.30;4.50;;;;;;;-2.81;87.47;98151.30;108987;1259;57163;-74
2023/03/10 02:58:55;;;;;;;15.20;6.80;;;;;;;-2.85;88.53;98148.92;109048;1260;60429;-74
2023/03/10 03:01:42;;;;;;;17.60;7.60;;;;;;;-2.83;87.72;98145.17;109005;1259;70981;-73
2023/03/10 03:04:30;;;;;;;15.90;7.70;;;;;;;-2.81;88.96;98146.61;108978;1259;67663;-73
2023/03/10 03:07:17;;;;;;;19.10;8.30;;;;;;;-2.79;88.75;98142.52;109004;1260;72664;-75
2023/03/10 03:10:05;;;;;;;20.30;8.90;;;;;;;-2.80;88.57;98135.09;109051;1259;57068;-73
2023/03/10 03:12:51;;;;;;;17.20;8.80;;;;;;;-2.78;89.24;98131.53;108989;1259;59023;-75
2023/03/10 03:15:38;;;;;;;17.80;8.90;;;;;;;-2.78;89.53;98128.94;109164;1257;72077;-73
2023/03/10 03:18:26;;;;;;;20.60;8.80;;;;;;;-2.77;90.19;98121.77;109319;1256;66607;-73
2023/03/10 03:21:16;;;;;;;17.60;8.30;;;;;;;-2.75;89.79;98110.69;109460;1251;72559;-73
2023/03/10 03:24:03;;;;;;;21.30;9.40;;;;;;;-2.71;89.72;98101.29;109745;1250;57163;-74
2023/03/10 03:26:50;;;;;;;16.20;7.20;;;;;;;-2.67;90.19;98094.84;109671;1250;61173;-72
2023/03/10 03:29:40;;;;;;;12.90;5.70;;;;;;;-2.68;90.35;98088.48;109572;1250;70767;-73
2023/03/10 03:32:26;;;;;;;14.70;6.20;;;;;;;-2.69;90.21;98085.05;109713;1250;67720;-72
2023/03/10 03:35:23;;;;;;;13.40;5.40;;;;;;;-2.72;90.85;98080.03;109510;1251;71169;-74
2023/03/10 03:38:09;;;;;;;17.10;7.40;;;;;;;-2.72;90.19;98079.86;108909;1251;1002610;-74
2023/03/10 03:40:57;;;;;;;12.30;5.60;;;;;;;-2.70;90.98;98077.48;109716;1251;60205;-75
2023/03/10 03:43:43;;;;;;;9.70;3.90;;;;;;;-2.74;91.11;98077.98;109673;1250;72277;-75
2023/03/10 03:46:30;;;;;;;13.30;4.40;;;;;;;-2.77;91.37;98079.55;109667;1251;66558;-75
2023/03/10 03:49:17;;;;;;;10.70;4.20;;;;;;;-2.79;91.75;98075.69;109655;1251;72292;-74
2023/03/10 03:52:06;;;;;;;11.10;4.50;;;;;;;-2.85;92.52;98069.09;109671;1251;58496;-75
2023/03/10 03:54:53;;;;;;;10.30;4.20;;;;;;;-2.84;92.42;98057.93;109519;1251;60108;-74
2023/03/10 03:57:40;;;;;;;11.70;5.00;;;;;;;-2.82;92.46;98056.26;109704;1251;69779;-74
2023/03/10 04:00:27;;;;;;;12.30;4.60;;;;;;;-2.82;92.59;98053.25;109520;1250;66382;-73
2023/03/10 04:03:18;;;;;;;9.50;4.50;;;;;;;-2.82;92.48;98052.08;108818;1250;1002918;-74
2023/03/10 04:06:07;;;;;;;11.10;5.10;;;;;;;-2.85;92.88;98042.19;109696;1250;56891;-74
2023/03/10 04:08:53;;;;;;;14.30;5.90;;;;;;;-2.85;93.00;98038.20;109550;1251;60530;-76
2023/03/10 04:11:41;;;;;;;12.00;5.00;;;;;;;-2.84;92.77;98031.02;109528;1251;71688;-75
2023/03/10 04:14:27;;;;;;;12.20;4.90;;;;;;;-2.84;93.02;98024.60;109713;1251;68668;-75
2023/03/10 04:17:15;;;;;;;11.30;5.50;;;;;;;-2.84;93.31;98021.11;109642;1251;71053;-73
2023/03/10 04:20:07;;;;;;;11.30;5.50;;;;;;;-2.83;93.36;98013.77;109603;1250;57432;-73
2023/03/10 04:22:56;;;;;;;9.70;4.80;;;;;;;-2.85;93.27;98004.84;109497;1250;60059;-73
2023/03/10 04:25:48;;;;;;;9.90;4.90;;;;;;;-2.86;93.24;97998.99;109661;1250;72217;-73
2023/03/10 04:28:34;;;;;;;12.50;5.90;;;;;;;-2.87;93.54;97997.84;109635;1251;67614;-73
2023/03/10 04:31:21;;;;;;;11.80;5.90;;;;;;;-2.84;92.99;97996.27;109623;1251;74155;-73
2023/03/10 04:34:09;;;;;;;12.00;5.60;;;;;;;-2.81;93.28;97995.11;108889;1251;1002306;-73
2023/03/10 04:36:56;;;;;;;12.50;5.20;;;;;;;-2.83;93.24;97990.66;109691;1251;60216;-74
2023/03/10 04:39:43;;;;;;;11.50;4.60;;;;;;;-2.83;93.30;97986.71;108808;1251;1002455;-73
2023/03/10 04:42:30;;;;;;;15.40;5.70;;;;;;;-2.89;93.79;97979.21;109500;1251;66766;-74
2023/03/10 04:45:17;;;;;;;13.20;5.80;;;;;;;-2.89;93.99;97982.17;109669;1251;71249;-73
2023/03/10 04:48:04;;;;;;;10.40;5.30;;;;;;;-2.89;94.22;97975.41;109691;1251;57012;-73
2023/03/10 04:51:06;;;;;;;11.90;5.20;;;;;;;-2.90;93.94;97978.73;109681;1251;61127;-74
2023/03/10 04:53:56;;;;;;;10.60;4.80;;;;;;;-2.91;94.21;97977.05;109512;1250;72312;-74
2023/03/10 04:56:45;;;;;;;8.20;4.00;;;;;;;-2.94;94.73;97967.67;109664;1251;67800;-73
2023/03/10 04:59:32;;;;;;;13.30;5.90;;;;;;;-2.96;95.05;97961.52;109546;1251;72649;-72
2023/03/10 05:02:19;;;;;;;15.90;5.90;;;;;;;-2.94;95.04;97959.73;109541;1251;57361;-77
2023/03/10 05:05:06;;;;;;;14.40;6.20;;;;;;;-2.92;94.88;97957.36;109618;1251;61243;-75
2023/03/10 05:07:54;;;;;;;9.50;3.70;;;;;;;-2.91;94.91;97953.80;109515;1251;69947;-77
2023/03/10 05:10:46;;;;;;;10.30;5.30;;;;;;;-2.91;94.81;97943.91;109624;1251;68728;-73
2023/03/10 05:13:33;;;;;;;11.90;4.90;;;;;;;-2.88;94.67;97941.88;109542;1250;72795;-75
2023/03/10 05:16:22;;;;;;;13.10;6.30;;;;;;;-2.88;95.09;97935.11;109648;1251;57996;-74
2023/03/10 05:19:09;;;;;;;13.80;6.60;;;;;;;-2.97;94.99;97919.30;109698;1250;60143;-74
2023/03/10 05:21:57;;;;;;;15.50;6.70;;;;;;;-2.87;95.15;97928.60;109560;1250;70940;-74
2023/03/10 05:24:43;;;;;;;13.10;5.60;;;;;;;-2.85;94.65;97924.88;109677;1251;68184;-74
2023/03/10 05:27:36;;;;;;;11.60;5.30;;;;;;;-2.87;94.77;97926.19;109656;1250;72481;-75
2023/03/10 05:30:23;;;;;;;11.70;6.20;;;;;;;-2.88;95.31;97921.70;108902;1249;1002916;-75
2023/03/10 05:33:11;;;;;;;14.00;6.70;;;;;;;-2.90;95.19;97914.17;109643;1250;61365;-73
2023/03/10 05:35:58;;;;;;;14.50;6.50;;;;;;;-2.88;95.14;97913.02;109459;1253;73578;-73
2023/03/10 05:38:45;;;;;;;12.20;6.10;;;;;;;-2.86;95.14;97911.70;108912;1250;1002984;-76
2023/03/10 05:41:36;;;;;;;13.50;6.40;;;;;;;-2.85;95.34;97914.09;109623;1251;71182;-75
2023/03/10 05:44:22;;;;;;;11.50;5.90;;;;;;;-2.84;95.00;97908.48;109841;1250;56935;-76
2023/03/10 05:47:09;;;;;;;14.00;6.30;;;;;;;-2.82;94.99;97898.81;108933;1249;1002958;-76
2023/03/10 05:49:56;;;;;;;14.00;6.80;;;;;;;-2.79;94.78;97895.86;108964;1250;1002794;-76
2023/03/10 05:52:44;;;;;;;15.30;6.50;;;;;;;-2.76;94.66;97891.33;109681;1250;67883;-74
2023/03/10 05:55:31;;;;;;;12.00;6.20;;;;;;;-2.75;94.88;97888.84;108851;1250;1002427;-75
2023/03/10 05:58:17;;;;;;;10.60;4.90;;;;;;;-2.75;94.78;97883.48;109668;1250;57046;-73
2023/03/10 06:01:05;;;;;;;14.70;7.10;;;;;;;-2.74;94.33;97885.50;109631;1249;60387;-75
2023/03/10 06:03:52;;;;;;;15.50;7.00;;;;;;;-2.75;94.46;97882.95;109679;1250;72082;-73
2023/03/10 06:06:39;;;;;;;13.40;6.80;;;;;;;-2.73;94.43;97877.27;109828;1249;66682;-74
2023/03/10 06:09:29;;;;;;;13.00;6.20;;;;;;;-2.69;94.26;97864.40;109607;1249;73514;-72
2023/03/10 06:12:15;;;;;;;13.40;6.30;;;;;;;-2.66;94.17;97862.62;109679;1249;57725;-77
2023/03/10 06:15:03;;;;;;;16.80;6.80;;;;;;;-2.65;94.01;97864.13;109826;1250;59688;-71
2023/03/10 06:17:50;;;;;;;13.70;6.90;;;;;;;-2.63;93.62;97861.44;109638;1250;73032;-75
2023/03/10 06:20:38;;;;;;;14.20;6.90;;;;;;;-2.65;93.73;97846.59;109874;1249;67819;-78
2023/03/10 06:23:26;;;;;;;13.50;6.10;;;;;;;-2.56;93.08;97857.90;109583;1249;72425;-77
2023/03/10 06:26:15;;;;;;;14.40;6.80;;;;;;;-2.52;93.09;97857.98;109811;1249;57100;-75
2023/03/10 06:29:02;;;;;;;12.20;6.40;;;;;;;-2.52;92.71;97856.80;109713;1250;60308;-75
2023/03/10 06:31:48;;;;;;;13.40;6.80;;;;;;;-2.51;92.92;97854.45;109687;1249;72240;-77
2023/03/10 06:34:35;;;;;;;15.80;6.70;;;;;;;-2.49;92.82;97846.16;109823;1249;67585;-74
2023/03/10 06:37:22;;;;;;;15.60;7.40;;;;;;;-2.46;92.88;97839.77;109000;1250;1002555;-77
2023/03/10 06:40:12;;;;;;;14.10;5.80;;;;;;;-2.45;92.49;97840.20;109665;1250;56953;-76
2023/03/10 06:42:59;;;;;;;13.40;6.80;;;;;;;-2.43;92.63;97838.73;109642;1249;61190;-76
2023/03/10 06:45:48;;;;;;;11.20;5.80;;;;;;;-2.42;92.98;97844.71;109685;1249;69617;-76
2023/03/10 06:48:36;;;;;;;12.80;7.00;;;;;;;-2.43;92.49;97843.91;109701;1250;67854;-76
2023/03/10 06:51:23;;;;;;;15.00;7.30;;;;;;;-2.41;92.49;97833.86;109825;1249;72671;-74
2023/03/10 06:54:09;;;;;;;13.10;7.00;;;;;;;-2.35;92.63;97833.39;109650;1250;57059;-74
2023/03/10 06:56:56;;;;;;;11.70;5.80;;;;;;;-2.28;92.50;97828.97;109865;1250;57891;-73
2023/03/10 06:59:42;;;;;;;10.00;4.70;;;;;;;-2.24;92.24;97828.38;109698;1250;72179;-72
2023/03/10 07:02:29;;;;;;;11.10;5.40;;;;;;;-2.20;92.39;97827.77;109843;1250;68707;-74
2023/03/10 07:05:16;;;;;;;11.20;6.00;;;;;;;-2.15;92.16;97827.83;109617;1249;72533;-75
2023/03/10 07:08:02;;;;;;;12.40;5.50;;;;;;;-2.11;91.88;97824.64;109680;1249;58009;-73
2023/03/10 07:10:49;;;;;;;13.00;6.70;;;;;;;-2.07;91.88;97819.34;109801;1249;59060;-74
2023/03/10 07:13:37;;;;;;;15.00;7.40;;;;;;;-2.02;91.69;97820.80;109742;1250;72218;-76
2023/03/10 07:16:24;;;;;;;16.30;6.70;;;;;;;-1.94;91.54;97815.75;109645;1249;68089;-75
2023/03/10 07:19:12;;;;;;;13.30;6.20;;;;;;;-1.85;90.91;97814.34;109827;1249;70282;-73
2023/03/10 07:22:01;;;;;;;14.60;7.40;;;;;;;-1.78;90.93;97808.83;109682;1249;57213;-75
2023/03/10 07:24:47;;;;;;;13.20;6.20;;;;;;;-1.74;90.36;97809.95;109683;1250;58831;-72
2023/03/10 07:27:34;;;;;;;12.40;6.50;;;;;;;-1.75;90.23;97800.98;108937;1249;1002657;-70
2023/03/10 07:30:20;;;;;;;14.90;6.80;;;;;;;-1.81;90.17;97797.55;109790;1250;69026;-73
2023/03/10 07:33:07;;;;;;;15.50;7.40;;;;;;;-1.82;90.21;97793.12;109812;1250;72187;-76
2023/03/10 07:35:54;;;;;;;12.50;6.10;;;;;;;-1.78;90.33;97792.13;109573;1251;59106;-73
2023/03/10 07:38:40;;;;;;;12.90;6.50;;;;;;;-1.76;90.36;97791.48;109493;1251;58836;-72
2023/03/10 07:41:27;;;;;;;12.60;6.00;;;;;;;-1.74;89.98;97791.55;109570;1251;72346;-73
2023/03/10 07:44:14;;;;;;;13.70;6.00;;;;;;;-1.71;90.09;97787.04;108117;1250;1002717;-73
2023/03/10 07:47:00;;;;;;;13.30;5.80;;;;;;;-1.68;90.01;97790.84;109695;1250;71061;-74
2023/03/10 07:49:47;;;;;;;15.40;6.80;;;;;;;-1.71;89.94;97782.70;109556;1250;58872;-74
2023/03/10 07:52:34;;;;;;;13.10;5.80;;;;;;;-1.67;89.40;97789.53;109713;1250;60265;-73
2023/03/10 07:55:21;;;;;;;12.60;5.90;;;;;;;-1.67;89.61;97784.70;109659;1250;71973;-74
2023/03/10 07:58:07;;;;;;;13.10;5.00;;;;;;;-1.67;89.70;97786.89;109517;1250;67668;-75
2023/03/10 08:00:56;;;;;;;15.40;6.20;;;;;;;-1.68;89.70;97780.38;109714;1250;71403;-73
2023/03/10 08:03:44;;;;;;;12.50;6.10;;;;;;;-1.68;89.56;97774.48;109678;1250;57347;-75
2023/03/10 08:06:32;;;;;;;12.90;6.30;;;;;;;-1.69;89.61;97772.23;109673;1251;60385;-76
2023/03/10 08:09:19;;;;;;;13.40;6.80;;;;;;;-1.67;90.06;97765.58;109844;1250;72179;-75
2023/03/10 08:12:06;;;;;;;11.70;5.50;;;;;;;-1.64;89.87;97762.37;109771;1250;68163;-74
2023/03/10 08:14:53;;;;;;;13.80;7.00;;;;;;;-1.68;89.53;97750.33;109833;1249;71342;-75
2023/03/10 08:17:40;;;;;;;13.00;5.80;;;;;;;-1.62;89.47;97749.58;109606;1249;57299;-76
2023/03/10 08:20:26;;;;;;;12.30;6.20;;;;;;;-1.56;89.69;97748.00;109843;1249;60025;-74
2023/03/10 08:23:13;;;;;;;13.90;6.90;;;;;;;-1.53;89.43;97742.02;109844;1250;70720;-75
2023/03/10 08:26:02;;;;;;;12.80;5.50;;;;;;;-1.46;89.00;97736.55;109819;1249;67748;-72
2023/03/10 08:28:48;;;;;;;11.60;5.20;;;;;;;-1.39;89.05;97727.73;109821;1250;72790;-74
2023/03/10 08:31:35;;;;;;;11.00;5.70;;;;;;;-1.32;88.79;97723.06;109841;1250;58076;-74
2023/03/10 08:34:22;;;;;;;9.10;4.80;;;;;;;-1.27;88.28;97717.69;109654;1249;58874;-75
2023/03/10 08:37:10;;;;;;;10.60;5.10;;;;;;;-1.24;88.04;97713.52;109104;1250;1002193;-74
2023/03/10 08:39:58;;;;;;;12.90;5.80;;;;;;;-1.19;88.38;97715.44;109716;1249;66384;-73
2023/03/10 08:42:48;;;;;;;12.80;5.80;;;;;;;-1.12;87.80;97713.26;109767;1249;72663;-74
2023/03/10 08:45:34;;;;;;;10.50;5.10;;;;;;;-1.09;86.71;97704.98;109813;1249;58279;-75
2023/03/10 08:48:21;;;;;;;11.30;5.50;;;;;;;-1.07;86.31;97701.77;109668;1250;61248;-74
2023/03/10 08:51:09;;;;;;;12.90;6.10;;;;;;;-1.06;86.15;97702.21;109640;1249;72140;-72
2023/03/10 08:53:58;;;;;;;11.10;5.60;;;;;;;-1.02;86.38;97698.11;109730;1249;66476;-72
2023/03/10 08:56:44;;;;;;;12.40;6.00;;;;;;;-0.97;86.27;97695.48;109793;1250;71444;-74
2023/03/10 08:59:30;;;;;;;12.20;6.10;;;;;;;-0.93;86.26;97694.55;109638;1250;57170;-74
2023/03/10 09:02:19;;;;;;;10.60;5.60;;;;;;;-0.93;86.24;97691.08;109638;1251;60050;-74
2023/03/10 09:05:06;;;;;;;10.30;5.30;;;;;;;-0.93;86.11;97694.86;109610;1250;72207;-74
2023/03/10 09:07:54;;;;;;;9.40;4.30;;;;;;;-0.94;85.73;97695.83;109689;1250;65919;-76
2023/03/10 09:10:43;;;;;;;10.90;5.70;;;;;;;-0.94;86.06;97695.50;108950;1250;1003076;-74
2023/03/10 09:13:30;;;;;;;10.50;4.90;;;;;;;-0.94;86.04;97693.73;109571;1250;57074;-74
2023/03/10 09:16:17;;;;;;;12.20;6.10;;;;;;;-0.92;86.08;97691.19;108912;1250;1002435;-74
2023/03/10 09:19:04;;;;;;;12.00;5.60;;;;;;;-0.85;85.87;97689.33;109543;1250;72341;-74
2023/03/10 09:21:51;;;;;;;11.30;5.00;;;;;;;-0.79;85.30;97681.95;109681;1250;67676;-73
2023/03/10 09:24:38;;;;;;;9.10;4.30;;;;;;;-0.72;85.49;97681.77;109497;1251;70453;-74
2023/03/10 09:27:25;;;;;;;11.80;4.90;;;;;;;-0.62;85.48;97677.41;109662;1251;56996;-74
2023/03/10 09:30:13;;;;;;;11.60;5.60;;;;;;;-0.48;85.35;97674.08;109638;1251;59102;-73
2023/03/10 09:32:59;;;;;;;11.10;5.40;;;;;;;-0.40;84.54;97674.87;109711;1250;72308;-76
2023/03/10 09:35:48;;;;;;;12.30;5.80;;;;;;;-0.38;84.50;97673.18;109634;1251;66761;-74
2023/03/10 09:38:52;;;;;;;11.70;5.30;;;;;;;-0.28;84.58;97671.76;109494;1250;71054;-77
2023/03/10 09:42:13;;;;;;;10.20;5.00;;;;;;;-0.24;84.12;97667.66;109687;1250;57101;-75
2023/03/10 09:45:30;;;;;;;9.20;4.00;;;;;;;-0.18;84.04;97661.98;109526;1251;59176;-74
2023/03/10 09:48:29;;;;;;;11.40;6.10;;;;;;;-0.10;83.83;97664.58;109707;1250;70862;-76
2023/03/10 09:51:23;;;;;;;10.20;5.00;;;;;;;-0.04;84.24;97663.55;109674;1250;65416;-75
2023/03/10 09:54:47;;;;;;;10.50;5.00;;;;;;;0.06;83.89;97660.45;109642;1250;72654;-75
2023/03/10 09:57:35;;;;;;;9.60;4.30;;;;;;;0.18;84.06;97655.73;109680;1250;57672;-75
2023/03/10 10:00:36;;;;;;;10.90;4.90;;;;;;;0.29;84.13;97648.95;109662;1250;60369;-74
2023/03/10 10:03:49;;;;;;;8.70;4.30;;;;;;;0.39;84.04;97646.34;109581;1250;73413;-76
2023/03/10 10:06:46;;;;;;;10.60;4.40;;;;;;;0.46;83.13;97646.34;109723;1250;67791;-75
2023/03/10 10:09:45;;;;;;;10.10;4.70;;;;;;;0.42;82.85;97644.18;109579;1251;72301;-75
2023/03/10 10:12:32;;;;;;;10.40;4.60;;;;;;;0.42;83.50;97636.52;109508;1250;58542;-75
2023/03/10 10:15:26;;;;;;;8.20;3.90;;;;;;;0.53;83.33;97635.86;109657;1250;58911;-74
2023/03/10 10:19:05;;;;;;;9.70;4.10;;;;;;;0.71;82.58;97633.80;109571;1251;70890;-75
2023/03/10 10:22:27;;;;;;;9.60;4.10;;;;;;;0.96;82.36;97629.64;109020;1257;66761;-74
2023/03/10 10:25:23;;;;;;;8.80;3.90;;;;;;;0.95;81.99;97627.79;108683;1263;72793;-75
2023/03/10 10:29:00;;;;;;;9.60;4.50;;;;;;;0.95;82.93;97622.71;108652;1264;57292;-75
2023/03/10 10:32:21;;;;;;;11.90;4.40;;;;;;;1.03;82.21;97616.52;108135;1271;60221;-75
2023/03/10 10:35:14;;;;;;;11.00;4.60;;;;;;;0.97;81.84;97609.14;107455;1276;72392;-75
2023/03/10 10:38:24;;;;;;;11.40;4.30;;;;;;;0.91;81.39;97608.20;107519;1277;67991;-74
2023/03/10 10:41:39;;;;;;;9.60;4.20;;;;;;;0.93;82.13;97605.92;107420;1276;72658;-74
2023/03/10 10:44:26;;;;;;;11.20;4.10;;;;;;;0.94;81.90;97603.59;106892;1283;57156;-74
2023/03/10 10:47:45;;;;;;;8.50;3.80;;;;;;;0.84;81.58;97595.96;106776;1283;58825;-77
2023/03/10 10:50:34;;;;;;;9.80;4.20;;;;;;;0.78;82.22;97591.19;106641;1283;73302;-77
2023/03/10 10:53:25;;;;;;;8.50;4.20;;;;;;;0.70;82.28;97585.18;106849;1283;66679;-75
2023/03/10 10:56:18;;;;;;;8.20;3.70;;;;;;;0.67;83.03;97582.94;106875;1278;71155;-74
2023/03/10 10:59:29;;;;;;;9.70;3.80;;;;;;;0.63;82.52;97584.80;107219;1279;57392;-73
2023/03/10 11:02:35;;;;;;;9.60;3.50;;;;;;;0.59;83.05;97581.29;107759;1272;58149;-76
2023/03/10 11:05:36;;;;;;;10.60;3.80;;;;;;;0.55;83.41;97572.77;107998;1273;71509;-75
2023/03/10 11:08:49;;;;;;;12.50;4.10;;;;;;;0.52;83.13;97575.38;108295;1265;67749;-75
2023/03/10 11:12:07;;;;;;;7.90;3.60;;;;;;;0.50;83.27;97567.16;108915;1259;71577;-73
2023/03/10 11:15:23;;;;;;;8.70;3.40;;;;;;;0.45;83.40;97566.50;109023;1259;58534;-75
2023/03/10 11:18:20;;;;;;;8.80;4.20;;;;;;;0.45;83.70;97568.75;108986;1259;58913;-77
2023/03/10 11:21:28;;;;;;;10.30;3.70;;;;;;;0.53;84.04;97564.50;109357;1251;71907;-76
2023/03/10 11:24:35;;;;;;;11.20;4.20;;;;;;;0.64;83.66;97568.37;109717;1251;67641;-76
2023/03/10 11:28:15;;;;;;;8.00;3.30;;;;;;;0.63;83.42;97565.98;109639;1251;72627;-78
2023/03/10 11:31:02;;;;;;;7.90;3.40;;;;;;;0.56;83.50;97555.68;109566;1250;57565;-75
2023/03/10 11:33:59;;;;;;;8.60;3.80;;;;;;;0.57;83.84;97554.77;109750;1250;60383;-74
2023/03/10 11:37:12;;;;;;;12.20;4.70;;;;;;;0.59;83.08;97553.75;109546;1251;72737;-74
2023/03/10 11:40:29;;;;;;;12.60;4.30;;;;;;;0.56;83.57;97551.33;109636;1251;66508;-78
2023/03/10 11:43:46;;;;;;;9.70;3.70;;;;;;;0.51;83.52;97551.93;109618;1251;72589;-77
2023/03/10 11:47:16;;;;;;;9.10;3.00;;;;;;;0.48;84.06;97552.45;109642;1250;57443;-75
2023/03/10 11:50:25;;;;;;;7.40;2.50;;;;;;;0.42;83.85;97550.29;109586;1251;191403;-74
2023/03/10 11:53:54;;;;;;;7.30;2.90;;;;;;;0.39;84.31;97548.43;109715;1251;72906;-77
2023/03/10 11:56:41;;;;;;;9.70;3.40;;;;;;;0.43;84.52;97543.58;109573;1254;67752;-76
2023/03/10 11:59:32;;;;;;;11.20;4.30;;;;;;;0.48;84.52;97545.48;109575;1251;71461;-76
2023/03/10 12:03:23;;;;;;;8.30;3.40;;;;;;;0.52;84.54;97543.09;109597;1251;57412;-81
2023/03/10 12:06:18;;;;;;;8.60;3.50;;;;;;;0.63;84.70;97537.20;109451;1253;60209;-76
2023/03/10 12:09:06;;;;;;;7.90;2.80;;;;;;;0.70;84.06;97535.64;109618;1251;73065;-74
2023/03/10 12:11:53;;;;;;;6.60;2.80;;;;;;;0.73;84.07;97533.83;109677;1253;66398;-77
2023/03/10 12:14:41;;;;;;;8.10;3.30;;;;;;;0.73;83.92;97534.17;109795;1250;71393;-76
2023/03/10 12:17:28;;;;;;;10.50;4.30;;;;;;;0.72;83.99;97531.08;109660;1250;59789;-74
2023/03/10 12:20:17;;;;;;;9.30;4.20;;;;;;;0.75;84.09;97525.13;109677;1251;60055;-74
2023/03/10 12:23:10;;;;;;;10.40;4.10;;;;;;;0.81;83.91;97530.05;109624;1250;72383;-77
2023/03/10 12:25:56;;;;;;;7.70;3.10;;;;;;;0.83;83.47;97526.38;109829;1250;67772;-75
2023/03/10 12:28:43;;;;;;;8.10;3.30;;;;;;;0.81;83.47;97530.24;109730;1250;73058;-76
2023/03/10 12:31:38;;;;;;;11.10;3.90;;;;;;;0.78;83.53;97535.70;109607;1251;57900;-78
2023/03/10 12:34:30;;;;;;;9.10;3.70;;;;;;;0.73;83.66;97534.52;109791;1250;60154;-77
2023/03/10 12:37:22;;;;;;;8.20;3.40;;;;;;;0.68;83.88;97530.33;109572;1250;73006;-75
2023/03/10 12:40:49;;;;;;;9.60;3.00;;;;;;;0.57;83.64;97517.73;109860;1250;67911;-76
2023/03/10 12:43:57;;;;;;;8.90;3.80;;;;;;;0.53;84.49;97514.91;108997;1258;73701;-76
2023/03/10 12:47:25;;;;;;;8.90;4.20;;;;;;;0.58;84.62;97509.30;108991;1258;57543;-76
2023/03/10 12:50:25;;;;;;;10.70;4.80;;;;;;;0.67;84.60;97505.79;109026;1259;59061;-76
2023/03/10 12:53:52;;;;;;;7.90;3.50;;;;;;;0.70;84.50;97505.75;109062;1258;72922;-75
2023/03/10 12:56:42;;;;;;;8.20;3.30;;;;;;;0.69;84.31;97513.17;108527;1265;66472;-73
2023/03/10 12:59:39;;;;;;;8.90;3.90;;;;;;;0.60;84.07;97514.89;108562;1264;71191;-75
2023/03/10 13:02:46;;;;;;;8.50;3.50;;;;;;;0.55;84.51;97514.48;108640;1264;57924;-76
2023/03/10 13:05:40;;;;;;;9.50;3.70;;;;;;;0.53;84.87;97509.89;108668;1263;59686;-78
2023/03/10 13:08:59;;;;;;;8.30;4.20;;;;;;;0.46;85.27;97504.61;108650;1264;72927;-78
2023/03/10 13:12:02;;;;;;;10.50;4.20;;;;;;;0.53;85.22;97513.01;108626;1265;66515;-77
2023/03/10 13:14:57;;;;;;;8.70;3.60;;;;;;;0.59;85.02;97514.25;108706;1262;71305;-76